Accueil
METAR-TAF:

METAR-TAF

Aéroports :

Curaçao, Antilles néerlandaises

Aéroport international de Curaçao

latitude: 12-12N, longitude: 068-58W, altitude: 9 m

Observation

Le bulletin a été fait il y a 2 heures et 33 minutes, à 04:00 UTC
Vent 9 kt de est
Température 28°C
Humidité 84%
Pression 1012 hPa
Visibilité 10 km ou plus
Quelques nuages à une hauteur de 1800 ft

METAR: TNCC 240400Z 10009KT 9999 FEW018 28/25 Q1012 NOSIG

Heure: 02:33 (06:33 UTC)

Prévision

Le bulletin a été fait il y a 3 heures et 3 minutes, à 03:30 UTC
Prévision valable du 24 à 06 UTC au 25 à 06 UTC
Vent 10 kt de est
Visibilité 10 km ou plus
Nuages épars à une hauteur de 1800 ft

TAF: TNCC 240330Z 2406/2506 09010KT 9999 SCT018

Observations et prévisions météorologiques de plus de 4000 aéroports (messages METAR et TAF).

Les stations disponibles sont représentées par des disques jaunes et rouges sur la carte.

Passer la souris dessus pour voir le nom de la station.

Cliquer dessus pour voir les observations et prévisions météorologiques.

Pour changer de carte: cliquez sur les boutons verts avec une croix noire pour zoomer, sur le bouton vert avec un tiret pour effectuer un zoom arrière, ou sur les flèches vertes pour les cartes adjacentes.


METAR-TAF: